Terminal Aerodrome Forecast
Issued by NWS

Home | Current Version | Previous Version | Text Only | Print | Product List | Glossary On
Versions: 1 2 3 4 5 6 7 8 9 10 11 12
228
FTUS43 KGRR 121730
TAFJXN
TAF
KJXN 121730Z 1218/1318 29014G24KT 4SM -SN BLSN OVC025
      TEMPO 1218/1222 1SM -SN BLSN OVC015
     FM122200 31014G24KT 5SM -SN OVC035
      TEMPO 1223/1301 1/4SM +SN BLSN VV007
     FM130500 32010KT 6SM -SN OVC035
     FM131500 32012G22KT P6SM BKN040=

USA.gov is the U.S. government's official web portal to all federal, state and local government web resources and services.